createdAt,value
2022-10-09T00:01:38.530Z,11.58
2022-10-09T00:04:06.972Z,11.58
2022-10-09T00:06:35.805Z,11.60
2022-10-09T00:09:04.527Z,11.62
2022-10-09T00:11:34.564Z,11.61
2022-10-09T00:14:04.608Z,11.61
2022-10-09T00:16:33.419Z,11.64
2022-10-09T00:19:02.199Z,11.62
2022-10-09T00:21:33.078Z,11.64
2022-10-09T00:24:03.338Z,11.62
2022-10-09T00:26:32.831Z,11.60
2022-10-09T00:29:01.396Z,11.61
2022-10-09T00:31:30.113Z,11.60
2022-10-09T00:33:58.606Z,11.58
2022-10-09T00:36:27.808Z,11.53
2022-10-09T00:38:56.654Z,11.50
2022-10-09T00:41:29.526Z,11.44
2022-10-09T00:44:04.087Z,11.37
2022-10-09T00:46:41.920Z,11.30
2022-10-09T00:49:17.769Z,11.26
2022-10-09T00:51:49.522Z,11.17
2022-10-09T00:54:23.303Z,11.16
2022-10-09T00:56:52.250Z,11.12
2022-10-09T00:59:21.673Z,11.09
2022-10-09T01:01:50.258Z,11.05
2022-10-09T01:04:19.981Z,11.02
2022-10-09T01:07:03.993Z,11.00
2022-10-09T01:09:40.833Z,10.99
2022-10-09T01:12:20.288Z,10.94
2022-10-09T01:14:57.324Z,10.92
2022-10-09T01:17:36.342Z,10.91
2022-10-09T01:20:22.670Z,10.86
2022-10-09T01:23:10.333Z,10.84
2022-10-09T01:25:51.966Z,10.79
2022-10-09T01:28:23.616Z,10.72
2022-10-09T01:30:52.857Z,10.68
2022-10-09T01:33:25.546Z,10.64
2022-10-09T01:35:54.250Z,10.60
2022-10-09T01:38:24.264Z,10.58
2022-10-09T01:40:53.740Z,10.54
2022-10-09T01:43:22.131Z,10.51
2022-10-09T01:45:50.634Z,10.41
2022-10-09T01:48:24.732Z,10.40
2022-10-09T01:51:00.788Z,10.32
2022-10-09T01:53:31.314Z,10.23
2022-10-09T01:56:07.825Z,10.19
2022-10-09T01:58:41.540Z,10.13
2022-10-09T02:01:16.812Z,10.08
2022-10-09T02:03:49.638Z,10.03
2022-10-09T02:06:21.716Z,9.95
2022-10-09T02:08:53.340Z,9.94
2022-10-09T02:11:23.697Z,9.86
2022-10-09T02:13:53.478Z,9.82
2022-10-09T02:16:28.212Z,9.78
2022-10-09T02:19:01.727Z,9.74
2022-10-09T02:21:39.056Z,9.71
2022-10-09T02:24:10.410Z,9.64
2022-10-09T02:26:39.416Z,9.62
2022-10-09T02:29:08.244Z,9.55
2022-10-09T02:31:39.933Z,9.54
2022-10-09T02:34:11.129Z,9.53
2022-10-09T02:36:40.643Z,9.47
2022-10-09T02:39:09.958Z,9.44
2022-10-09T02:41:38.753Z,9.43
2022-10-09T02:44:07.717Z,9.40
2022-10-09T02:46:37.842Z,9.37
2022-10-09T02:49:06.939Z,9.37
2022-10-09T02:51:35.627Z,9.34
2022-10-09T02:54:04.962Z,9.33
2022-10-09T02:56:37.969Z,9.32
2022-10-09T02:59:07.848Z,9.30
2022-10-09T03:01:36.862Z,9.30
2022-10-09T03:04:05.881Z,9.26
2022-10-09T03:06:34.469Z,9.26
2022-10-09T03:09:03.165Z,9.25
2022-10-09T03:11:31.518Z,9.22
2022-10-09T03:14:00.465Z,9.21
2022-10-09T03:16:29.146Z,9.21
2022-10-09T03:18:58.540Z,9.19
2022-10-09T03:21:28.217Z,9.15
2022-10-09T03:23:56.822Z,9.15
2022-10-09T03:26:27.360Z,9.15
2022-10-09T03:28:56.324Z,9.12
2022-10-09T03:31:51.205Z,9.11
2022-10-09T03:34:15.960Z,9.09
2022-10-09T03:36:44.425Z,9.05
2022-10-09T03:39:13.339Z,9.04
2022-10-09T03:41:42.143Z,9.01
2022-10-09T03:44:10.494Z,8.98
2022-10-09T03:46:48.270Z,8.98
2022-10-09T03:49:19.186Z,8.92
2022-10-09T03:51:48.233Z,8.91
2022-10-09T03:54:19.257Z,8.88
2022-10-09T03:56:47.923Z,8.88
2022-10-09T03:59:16.725Z,8.90
2022-10-09T04:01:45.312Z,8.90
2022-10-09T04:04:14.770Z,8.92
2022-10-09T04:06:44.179Z,8.92
2022-10-09T04:09:12.909Z,8.94
2022-10-09T04:11:41.347Z,8.92
2022-10-09T04:14:10.241Z,8.96
2022-10-09T04:16:40.722Z,8.96
2022-10-09T04:19:17.804Z,9.01
2022-10-09T04:21:49.207Z,9.04
2022-10-09T04:24:21.167Z,9.04
2022-10-09T04:26:49.803Z,9.06
2022-10-09T04:29:19.006Z,9.08
2022-10-09T04:31:47.490Z,9.13
2022-10-09T04:34:16.831Z,9.13
2022-10-09T04:36:45.249Z,9.18
2022-10-09T04:39:13.892Z,9.19
2022-10-09T04:41:42.497Z,9.21
2022-10-09T04:44:10.904Z,9.23
2022-10-09T04:46:39.376Z,9.21
2022-10-09T04:49:10.855Z,9.26
2022-10-09T04:51:39.444Z,9.26
2022-10-09T04:54:09.097Z,9.26
2022-10-09T04:56:37.745Z,9.30
2022-10-09T04:59:06.555Z,9.30
2022-10-09T05:01:39.379Z,9.30
2022-10-09T05:04:08.898Z,9.30
2022-10-09T05:06:37.520Z,9.30
2022-10-09T05:09:06.018Z,9.32
2022-10-09T05:11:37.148Z,9.33
2022-10-09T05:14:12.763Z,9.32
2022-10-09T05:17:08.493Z,9.33
2022-10-09T05:19:30.666Z,9.32
2022-10-09T05:22:00.221Z,9.33
2022-10-09T05:24:29.702Z,9.32
2022-10-09T05:26:59.117Z,9.32
2022-10-09T05:29:27.869Z,9.32
2022-10-09T05:31:56.837Z,9.30
2022-10-09T05:34:25.680Z,9.30
2022-10-09T05:36:54.281Z,9.30
2022-10-09T05:39:23.116Z,9.30
2022-10-09T05:41:51.692Z,9.30
2022-10-09T05:44:20.420Z,9.32
2022-10-09T05:46:49.295Z,9.34
2022-10-09T05:49:19.515Z,9.33
2022-10-09T05:51:49.515Z,9.32
2022-10-09T05:54:19.113Z,9.32
2022-10-09T05:56:47.848Z,9.33
2022-10-09T05:59:19.168Z,9.34
2022-10-09T06:01:50.206Z,9.36
2022-10-09T06:04:21.977Z,9.37
2022-10-09T06:06:51.441Z,9.40
2022-10-09T06:09:22.880Z,9.40
2022-10-09T06:11:52.809Z,9.44
2022-10-09T06:14:22.594Z,9.46
2022-10-09T06:16:51.702Z,9.44
2022-10-09T06:19:20.852Z,9.46
2022-10-09T06:21:50.087Z,9.47
2022-10-09T06:24:25.778Z,9.51
2022-10-09T06:26:57.465Z,9.54
2022-10-09T06:29:26.592Z,9.54
2022-10-09T06:31:55.253Z,9.58
2022-10-09T06:34:24.887Z,9.61
2022-10-09T06:36:53.515Z,9.64
2022-10-09T06:39:22.422Z,9.65
2022-10-09T06:41:51.017Z,9.74
2022-10-09T06:44:25.811Z,9.75
2022-10-09T06:46:54.778Z,9.78
2022-10-09T06:49:28.233Z,9.80
2022-10-09T06:51:56.937Z,9.82
2022-10-09T06:54:25.690Z,9.85
2022-10-09T06:56:55.335Z,9.85
2022-10-09T06:59:24.147Z,9.91
2022-10-09T07:01:53.053Z,9.95
2022-10-09T07:04:21.720Z,10.01
2022-10-09T07:06:50.283Z,10.06
2022-10-09T07:09:19.542Z,10.10
2022-10-09T07:11:48.989Z,10.13
2022-10-09T07:14:19.127Z,10.19
2022-10-09T07:16:49.150Z,10.16
2022-10-09T07:19:21.224Z,10.23
2022-10-09T07:21:50.528Z,10.26
2022-10-09T07:24:24.185Z,10.29
2022-10-09T07:26:54.819Z,10.29
2022-10-09T07:29:23.933Z,10.32
2022-10-09T07:31:52.489Z,10.33
2022-10-09T07:34:24.392Z,10.34
2022-10-09T07:36:52.913Z,10.34
2022-10-09T07:39:21.981Z,10.39
2022-10-09T07:41:52.211Z,10.39
2022-10-09T07:44:21.152Z,10.45
2022-10-09T07:46:51.705Z,10.47
2022-10-09T07:49:21.596Z,10.56
2022-10-09T07:51:50.105Z,10.56
2022-10-09T07:54:21.479Z,10.61
2022-10-09T07:56:49.949Z,10.64
2022-10-09T07:59:19.647Z,10.65
2022-10-09T08:01:48.240Z,10.71
2022-10-09T08:04:16.932Z,10.75
2022-10-09T08:06:46.184Z,10.81
2022-10-09T08:09:14.766Z,10.84
2022-10-09T08:11:44.072Z,10.84
2022-10-09T08:14:19.002Z,10.84
2022-10-09T08:16:50.353Z,10.82
2022-10-09T08:19:21.709Z,10.81
2022-10-09T08:21:50.267Z,10.82
2022-10-09T08:24:19.833Z,10.84
2022-10-09T08:26:48.377Z,10.85
2022-10-09T08:29:19.976Z,10.89
2022-10-09T08:31:48.644Z,10.91
2022-10-09T08:34:21.112Z,10.95
2022-10-09T08:36:50.163Z,10.94
2022-10-09T08:39:21.403Z,10.92
2022-10-09T08:41:54.246Z,10.92
2022-10-09T08:44:26.575Z,10.95
2022-10-09T08:47:03.389Z,10.96
2022-10-09T08:52:37.946Z,11.03
2022-10-09T08:55:16.693Z,11.07
2022-10-09T08:57:56.713Z,11.12
2022-10-09T09:00:31.119Z,11.14
2022-10-09T09:03:33.801Z,11.20
2022-10-09T09:06:09.811Z,11.26
2022-10-09T09:08:48.691Z,11.39
2022-10-09T09:11:28.372Z,11.47
2022-10-09T09:14:12.194Z,11.58
2022-10-09T09:16:48.135Z,11.65
2022-10-09T09:19:36.230Z,11.75
2022-10-09T09:22:09.520Z,11.78
2022-10-09T09:24:45.075Z,11.85
2022-10-09T09:27:16.752Z,11.93
2022-10-09T09:29:50.389Z,11.99
2022-10-09T09:32:23.159Z,12.00
2022-10-09T09:34:58.952Z,12.00
2022-10-09T09:37:28.645Z,11.99
2022-10-09T09:42:48.720Z,11.96
2022-10-09T09:45:22.248Z,11.96
2022-10-09T09:47:55.921Z,12.02
2022-10-09T09:50:48.645Z,12.02
2022-10-09T09:53:30.135Z,12.00
2022-10-09T09:55:59.043Z,12.05
2022-10-09T09:58:35.175Z,12.09
2022-10-09T10:01:06.109Z,12.15
2022-10-09T10:03:36.305Z,12.19
2022-10-09T10:06:17.679Z,12.22
2022-10-09T10:08:57.103Z,12.24
2022-10-09T10:11:25.919Z,12.30
2022-10-09T10:13:54.576Z,12.31
2022-10-09T10:16:25.801Z,12.36
2022-10-09T10:18:56.971Z,12.33
2022-10-09T10:21:25.619Z,12.37
2022-10-09T10:26:40.943Z,12.41
2022-10-09T10:29:15.431Z,12.39
2022-10-09T10:31:51.467Z,12.40
2022-10-09T10:34:26.216Z,12.40
2022-10-09T10:37:02.642Z,12.43
2022-10-09T10:39:39.953Z,12.40
2022-10-09T10:42:21.203Z,12.33
2022-10-09T10:45:00.138Z,12.31
2022-10-09T10:47:34.738Z,12.29
2022-10-09T10:50:03.856Z,12.27
2022-10-09T10:52:43.500Z,12.31
2022-10-09T10:55:28.453Z,12.43
2022-10-09T10:58:13.911Z,12.44
2022-10-09T11:00:50.573Z,12.44
2022-10-09T11:03:38.571Z,12.41
2022-10-09T11:06:12.350Z,12.41
2022-10-09T11:08:54.094Z,12.37
2022-10-09T11:11:35.951Z,12.40
2022-10-09T11:14:20.307Z,12.43
2022-10-09T11:17:01.055Z,12.44
2022-10-09T11:19:56.891Z,12.47
2022-10-09T11:22:40.160Z,12.55
2022-10-09T11:25:21.606Z,12.58
2022-10-09T11:27:53.485Z,12.59
2022-10-09T11:30:24.713Z,12.58
2022-10-09T11:33:02.786Z,12.61
2022-10-09T11:35:37.361Z,12.69
2022-10-09T11:38:24.387Z,12.75
2022-10-09T11:40:53.930Z,12.80
2022-10-09T11:43:40.779Z,12.85
2022-10-09T11:46:15.608Z,12.92
2022-10-09T11:48:54.621Z,12.99
2022-10-09T11:51:33.563Z,13.12
2022-10-09T11:54:03.946Z,13.26
2022-10-09T11:56:33.332Z,13.30
2022-10-09T11:59:04.851Z,13.41
2022-10-09T12:01:37.821Z,13.41
2022-10-09T12:04:09.918Z,13.42
2022-10-09T12:06:49.339Z,13.52
2022-10-09T12:09:30.263Z,13.55
2022-10-09T12:12:03.103Z,13.58
2022-10-09T12:14:34.405Z,13.66
2022-10-09T12:17:16.399Z,13.65
2022-10-09T12:20:00.769Z,13.64
2022-10-09T12:22:33.979Z,13.61
2022-10-09T12:25:07.717Z,13.59
2022-10-09T12:27:42.693Z,13.58
2022-10-09T12:30:23.487Z,13.58
2022-10-09T12:32:57.008Z,13.59
2022-10-09T12:35:32.391Z,13.61
2022-10-09T12:38:01.221Z,13.64
2022-10-09T12:40:33.183Z,13.69
2022-10-09T12:43:07.958Z,13.75
2022-10-09T12:45:43.875Z,13.81
2022-10-09T12:48:18.124Z,13.89
2022-10-09T12:50:45.883Z,13.95
2022-10-09T12:53:18.577Z,14.02
2022-10-09T12:55:49.040Z,13.99
2022-10-09T12:58:22.093Z,13.97
2022-10-09T13:00:55.183Z,13.95
2022-10-09T13:03:34.496Z,13.96
2022-10-09T13:06:05.039Z,13.99
2022-10-09T13:08:39.877Z,14.00
2022-10-09T13:11:13.400Z,14.06
2022-10-09T13:13:42.639Z,14.16
2022-10-09T13:16:12.009Z,14.20
2022-10-09T13:18:41.275Z,14.19
2022-10-09T13:21:27.318Z,14.10
2022-10-09T13:24:08.051Z,14.00
2022-10-09T13:26:38.122Z,13.88
2022-10-09T13:29:09.398Z,13.78
2022-10-09T13:31:43.000Z,13.72
2022-10-09T13:34:14.888Z,13.68
2022-10-09T13:36:44.049Z,13.64
2022-10-09T13:39:17.338Z,13.62
2022-10-09T13:41:48.984Z,13.65
2022-10-09T13:44:18.096Z,13.62
2022-10-09T13:46:51.272Z,13.58
2022-10-09T13:49:22.175Z,13.58
2022-10-09T13:51:55.525Z,13.59
2022-10-09T13:54:25.304Z,13.54
2022-10-09T13:56:55.685Z,13.50
2022-10-09T13:59:25.019Z,13.47
2022-10-09T14:01:56.380Z,13.47
2022-10-09T14:04:26.323Z,13.44
2022-10-09T14:06:55.644Z,13.42
2022-10-09T14:09:25.361Z,13.44
2022-10-09T14:11:59.778Z,13.42
2022-10-09T14:14:29.669Z,13.40
2022-10-09T14:16:59.663Z,13.33
2022-10-09T14:19:29.198Z,13.23
2022-10-09T14:22:00.448Z,13.14
2022-10-09T14:24:29.908Z,13.09
2022-10-09T14:26:58.962Z,13.03
2022-10-09T14:29:27.894Z,12.98
2022-10-09T14:31:56.798Z,12.92
2022-10-09T14:34:28.216Z,12.88
2022-10-09T14:36:57.154Z,12.86
2022-10-09T14:39:26.079Z,12.80
2022-10-09T14:41:55.013Z,12.75
2022-10-09T14:44:27.122Z,12.71
2022-10-09T14:47:00.593Z,12.65
2022-10-09T14:49:29.298Z,12.55
2022-10-09T14:51:58.101Z,12.52
2022-10-09T14:54:26.961Z,12.47
2022-10-09T14:56:56.114Z,12.43
2022-10-09T14:59:25.702Z,12.39
2022-10-09T15:01:54.382Z,12.34
2022-10-09T15:04:24.285Z,12.26
2022-10-09T15:06:53.462Z,12.19
2022-10-09T15:09:25.835Z,12.15
2022-10-09T15:11:55.430Z,12.07
2022-10-09T15:14:25.194Z,11.99
2022-10-09T15:16:53.788Z,11.92
2022-10-09T15:19:23.781Z,11.88
2022-10-09T15:21:52.484Z,11.79
2022-10-09T15:24:22.116Z,11.71
2022-10-09T15:26:51.045Z,11.65
2022-10-09T15:29:20.066Z,11.58
2022-10-09T15:31:50.584Z,11.50
2022-10-09T15:34:20.389Z,11.43
2022-10-09T15:36:51.842Z,11.34
2022-10-09T15:39:23.683Z,11.26
2022-10-09T15:41:52.422Z,11.19
2022-10-09T15:44:23.646Z,11.12
2022-10-09T15:46:52.508Z,11.02
2022-10-09T15:49:22.360Z,10.95
2022-10-09T15:51:52.026Z,10.84
2022-10-09T15:54:20.752Z,10.78
2022-10-09T15:56:50.681Z,10.67
2022-10-09T15:59:29.407Z,10.60
2022-10-09T16:01:58.429Z,10.51
2022-10-09T16:04:28.318Z,10.40
2022-10-09T16:06:57.883Z,10.34
2022-10-09T16:09:31.330Z,10.24
2022-10-09T16:12:03.642Z,10.15
2022-10-09T16:14:32.362Z,10.05
2022-10-09T16:17:01.237Z,9.99
2022-10-09T16:19:30.236Z,9.86
2022-10-09T16:21:58.953Z,9.78
2022-10-09T16:24:28.216Z,9.68
2022-10-09T16:26:57.024Z,9.61
2022-10-09T16:29:26.024Z,9.51
2022-10-09T16:31:56.119Z,9.39
2022-10-09T16:34:26.781Z,9.29
2022-10-09T16:37:04.709Z,9.19
2022-10-09T16:39:33.585Z,9.12
2022-10-09T16:42:07.186Z,9.01
2022-10-09T16:44:35.946Z,8.92
2022-10-09T16:47:05.145Z,8.87
2022-10-09T16:49:33.937Z,8.75
2022-10-09T16:52:03.424Z,8.69
2022-10-09T16:54:32.583Z,8.58
2022-10-09T16:57:01.425Z,8.47
2022-10-09T16:59:30.537Z,8.41
2022-10-09T17:02:03.270Z,8.32
2022-10-09T17:04:34.142Z,8.23
2022-10-09T17:07:05.995Z,8.19
2022-10-09T17:09:36.845Z,8.13
2022-10-09T17:12:10.739Z,8.06
2022-10-09T17:14:40.477Z,8.01
2022-10-09T17:17:12.900Z,7.94
2022-10-09T17:19:43.138Z,7.88
2022-10-09T17:22:22.763Z,7.85
2022-10-09T17:24:51.794Z,7.80
2022-10-09T17:27:20.456Z,7.74
2022-10-09T17:29:51.538Z,7.70
2022-10-09T17:32:20.337Z,7.67
2022-10-09T17:34:50.568Z,7.63
2022-10-09T17:37:19.422Z,7.56
2022-10-09T17:39:51.998Z,7.49
2022-10-09T17:42:21.240Z,7.46
2022-10-09T17:44:53.770Z,7.40
2022-10-09T17:47:24.145Z,7.36
2022-10-09T17:49:54.205Z,7.33
2022-10-09T17:52:23.525Z,7.28
2022-10-09T17:54:53.741Z,7.25
2022-10-09T17:57:24.971Z,7.18
2022-10-09T17:59:56.595Z,7.12
2022-10-09T18:02:25.460Z,7.05
2022-10-09T18:04:57.603Z,7.01
2022-10-09T18:07:26.784Z,6.94
2022-10-09T18:09:58.499Z,6.88
2022-10-09T18:12:32.402Z,6.88
2022-10-09T18:15:02.329Z,6.86
2022-10-09T18:17:33.275Z,6.82
2022-10-09T18:20:02.009Z,6.76
2022-10-09T18:22:31.042Z,6.70
2022-10-09T18:25:02.606Z,6.66
2022-10-09T18:27:31.059Z,6.63
2022-10-09T18:29:59.674Z,6.56
2022-10-09T18:32:28.393Z,6.49
2022-10-09T18:34:59.646Z,6.49
2022-10-09T18:37:28.654Z,6.46
2022-10-09T18:39:57.801Z,6.43
2022-10-09T18:42:27.191Z,6.40
2022-10-09T18:44:57.053Z,6.33
2022-10-09T18:47:28.469Z,6.31
2022-10-09T18:50:01.311Z,6.26
2022-10-09T18:52:30.825Z,6.22
2022-10-09T18:55:05.697Z,6.19
2022-10-09T18:57:35.621Z,6.15
2022-10-09T19:00:05.991Z,6.14
2022-10-09T19:02:37.097Z,6.10
2022-10-09T19:05:07.242Z,6.08
2022-10-09T19:07:36.456Z,6.04
2022-10-09T19:10:07.293Z,6.04
2022-10-09T19:12:35.945Z,6.00
2022-10-09T19:15:12.119Z,5.97
2022-10-09T19:17:41.587Z,5.94
2022-10-09T19:20:10.850Z,5.94
2022-10-09T19:22:39.911Z,5.87
2022-10-09T19:25:09.285Z,5.84
2022-10-09T19:27:38.342Z,5.80
2022-10-09T19:30:10.279Z,5.76
2022-10-09T19:32:38.830Z,5.73
2022-10-09T19:35:08.955Z,5.72
2022-10-09T19:37:37.539Z,5.69
2022-10-09T19:40:08.670Z,5.65
2022-10-09T19:42:37.416Z,5.63
2022-10-09T19:45:10.758Z,5.62
2022-10-09T19:47:42.221Z,5.58
2022-10-09T19:50:14.548Z,5.56
2022-10-09T19:52:46.410Z,5.52
2022-10-09T19:55:15.179Z,5.52
2022-10-09T19:57:43.834Z,5.46
2022-10-09T20:00:14.842Z,5.45
2022-10-09T20:02:43.433Z,5.42
2022-10-09T20:05:14.761Z,5.38
2022-10-09T20:07:43.718Z,5.35
2022-10-09T20:10:15.127Z,5.29
2022-10-09T20:12:43.737Z,5.27
2022-10-09T20:15:15.631Z,5.24
2022-10-09T20:17:44.140Z,5.18
2022-10-09T20:20:12.945Z,5.12
2022-10-09T20:22:41.605Z,5.10
2022-10-09T20:25:10.720Z,5.07
2022-10-09T20:27:39.466Z,5.07
2022-10-09T20:30:09.997Z,5.03
2022-10-09T20:32:38.693Z,5.01
2022-10-09T20:35:08.925Z,5.01
2022-10-09T20:37:37.643Z,4.94
2022-10-09T20:40:07.515Z,4.91
2022-10-09T20:42:36.215Z,4.87
2022-10-09T20:45:06.116Z,4.86
2022-10-09T20:47:35.015Z,4.84
2022-10-09T20:50:04.299Z,4.82
2022-10-09T20:52:33.000Z,4.83
2022-10-09T20:55:02.195Z,4.82
2022-10-09T20:57:34.985Z,4.80
2022-10-09T21:00:05.384Z,4.79
2022-10-09T21:02:35.667Z,4.77
2022-10-09T21:05:07.733Z,4.76
2022-10-09T21:07:36.526Z,4.72
2022-10-09T21:10:06.708Z,4.71
2022-10-09T21:12:35.506Z,4.68
2022-10-09T21:15:05.527Z,4.61
2022-10-09T21:17:34.339Z,4.58
2022-10-09T21:22:50.287Z,4.54
2022-10-09T21:25:21.455Z,4.51
2022-10-09T21:27:51.111Z,4.48
2022-10-09T21:30:19.574Z,4.48
2022-10-09T21:32:51.085Z,4.45
2022-10-09T21:35:24.025Z,4.41
2022-10-09T21:37:52.493Z,4.39
2022-10-09T21:40:23.481Z,4.37
2022-10-09T21:42:52.379Z,4.34
2022-10-09T21:45:21.410Z,4.32
2022-10-09T21:47:55.005Z,4.29
2022-10-09T21:50:26.905Z,4.28
2022-10-09T21:52:55.668Z,4.27
2022-10-09T21:55:25.282Z,4.27
2022-10-09T21:57:54.382Z,4.25
2022-10-09T22:00:24.191Z,4.22
2022-10-09T22:02:53.158Z,4.22
2022-10-09T22:05:26.783Z,4.20
2022-10-09T22:07:55.479Z,4.17
2022-10-09T22:10:26.751Z,4.14
2022-10-09T22:12:55.277Z,4.13
2022-10-09T22:15:24.184Z,4.09
2022-10-09T22:17:52.677Z,4.10
2022-10-09T22:20:21.540Z,4.07
2022-10-09T22:22:51.411Z,4.06
2022-10-09T22:25:20.552Z,4.03
2022-10-09T22:27:49.303Z,4.03
2022-10-09T22:30:18.024Z,4.01
2022-10-09T22:32:46.954Z,3.99
2022-10-09T22:35:15.741Z,3.96
2022-10-09T22:37:45.237Z,3.99
2022-10-09T22:40:14.410Z,3.94
2022-10-09T22:42:42.919Z,3.90
2022-10-09T22:45:12.217Z,3.89
2022-10-09T22:47:40.981Z,3.83
2022-10-09T22:50:10.536Z,3.83
2022-10-09T22:52:39.112Z,3.82
2022-10-09T22:55:09.412Z,3.80
2022-10-09T22:57:38.209Z,3.80
2022-10-09T23:00:08.967Z,3.78
2022-10-09T23:02:39.351Z,3.76
2022-10-09T23:05:11.679Z,3.73
2022-10-09T23:07:43.318Z,3.71
2022-10-09T23:10:12.031Z,3.71
2022-10-09T23:12:42.396Z,3.71
2022-10-09T23:15:11.600Z,3.68
2022-10-09T23:17:41.919Z,3.66
2022-10-09T23:20:11.237Z,3.68
2022-10-09T23:22:39.856Z,3.66
2022-10-09T23:25:09.867Z,3.62
2022-10-09T23:27:38.633Z,3.61
2022-10-09T23:30:09.767Z,3.57
2022-10-09T23:32:38.474Z,3.55
2022-10-09T23:35:08.673Z,3.50
2022-10-09T23:37:37.563Z,3.48
2022-10-09T23:40:08.223Z,3.44
2022-10-09T23:42:38.154Z,3.43
2022-10-09T23:45:10.212Z,3.41
2022-10-09T23:47:41.365Z,3.40
2022-10-09T23:50:10.854Z,3.37
2022-10-09T23:52:43.202Z,3.35
2022-10-09T23:55:14.770Z,3.35
2022-10-09T23:57:44.095Z,3.34
